createdAt,value
2019-01-26T00:00:33.028Z,-1.50
2019-01-26T00:01:08.438Z,-1.60
2019-01-26T00:01:40.925Z,-1.60
2019-01-26T00:02:13.660Z,-1.60
2019-01-26T00:02:46.126Z,-1.60
2019-01-26T00:03:18.593Z,-1.60
2019-01-26T00:03:51.112Z,-1.60
2019-01-26T00:04:23.558Z,-1.60
2019-01-26T00:04:56.387Z,-1.60
2019-01-26T00:05:28.872Z,-1.50
2019-01-26T00:06:01.366Z,-1.50
2019-01-26T00:06:34.177Z,-1.50
2019-01-26T00:07:06.679Z,-1.50
2019-01-26T00:07:39.167Z,-1.40
2019-01-26T00:08:11.658Z,-1.40
2019-01-26T00:08:44.127Z,-1.40
2019-01-26T00:09:16.609Z,-1.40
2019-01-26T00:09:49.425Z,-1.40
2019-01-26T00:10:21.899Z,-1.40
2019-01-26T00:10:54.775Z,-1.50
2019-01-26T00:11:27.249Z,-1.50
2019-01-26T00:11:59.713Z,-1.50
2019-01-26T00:12:32.530Z,-1.50
2019-01-26T00:13:05.011Z,-1.50
2019-01-26T00:13:37.470Z,-1.50
2019-01-26T00:14:10.325Z,-1.40
2019-01-26T00:14:43.064Z,-1.50
2019-01-26T00:15:15.553Z,-1.50
2019-01-26T00:15:48.326Z,-1.50
2019-01-26T00:16:21.194Z,-1.60
2019-01-26T00:16:53.788Z,-1.60
2019-01-26T00:17:26.279Z,-1.50
2019-01-26T00:17:58.747Z,-1.60
2019-01-26T00:18:31.224Z,-1.60
2019-01-26T00:19:03.699Z,-1.50
2019-01-26T00:19:36.502Z,-1.50
2019-01-26T00:20:08.992Z,-1.50
2019-01-26T00:20:41.499Z,-1.50
2019-01-26T00:21:13.970Z,-1.50
2019-01-26T00:21:46.457Z,-1.50
2019-01-26T00:22:18.938Z,-1.50
2019-01-26T00:22:51.418Z,-1.50
2019-01-26T00:23:23.912Z,-1.50
2019-01-26T00:23:56.665Z,-1.50
2019-01-26T00:24:29.150Z,-1.40
2019-01-26T00:25:01.636Z,-1.40
2019-01-26T00:25:34.102Z,-1.40
2019-01-26T00:26:06.606Z,-1.40
2019-01-26T00:26:39.517Z,-1.40
2019-01-26T00:27:12.393Z,-1.40
2019-01-26T00:27:44.850Z,-1.30
2019-01-26T00:28:17.331Z,-1.40
2019-01-26T00:28:49.826Z,-1.30
2019-01-26T00:29:22.641Z,-1.30
2019-01-26T00:29:55.111Z,-1.30
2019-01-26T00:30:27.577Z,-1.40
2019-01-26T00:31:00.435Z,-1.30
2019-01-26T00:31:32.933Z,-1.40
2019-01-26T00:32:05.875Z,-1.40
2019-01-26T00:32:38.357Z,-1.30
2019-01-26T00:33:10.826Z,-1.30
2019-01-26T00:33:43.503Z,-1.30
2019-01-26T00:34:16.070Z,-1.30
2019-01-26T00:34:48.960Z,-1.30
2019-01-26T00:35:24.207Z,-1.30
2019-01-26T00:35:56.736Z,-1.30
2019-01-26T00:36:29.227Z,-1.30
2019-01-26T00:37:01.740Z,-1.30
2019-01-26T00:37:34.221Z,-1.30
2019-01-26T00:38:06.706Z,-1.30
2019-01-26T00:38:39.174Z,-1.30
2019-01-26T00:39:11.659Z,-1.20
2019-01-26T00:39:45.143Z,-1.30
2019-01-26T00:40:17.716Z,-1.30
2019-01-26T00:40:50.179Z,-1.30
2019-01-26T00:41:22.658Z,-1.30
2019-01-26T00:41:55.133Z,-1.30
2019-01-26T00:42:27.635Z,-1.40
2019-01-26T00:43:00.118Z,-1.40
2019-01-26T00:43:32.588Z,-1.40
2019-01-26T00:44:05.069Z,-1.40
2019-01-26T00:44:37.542Z,-1.40
2019-01-26T00:45:10.110Z,-1.40
2019-01-26T00:45:42.558Z,-1.40
2019-01-26T00:46:15.043Z,-1.40
2019-01-26T00:46:47.518Z,-1.40
2019-01-26T00:47:20.615Z,-1.40
2019-01-26T00:47:53.125Z,-1.40
2019-01-26T00:48:25.590Z,-1.40
2019-01-26T00:48:58.399Z,-1.40
2019-01-26T00:49:30.884Z,-1.40
2019-01-26T00:50:04.247Z,-1.40
2019-01-26T00:50:36.739Z,-1.30
2019-01-26T00:51:09.214Z,-1.40
2019-01-26T00:51:42.037Z,-1.40
2019-01-26T00:52:14.983Z,-1.30
2019-01-26T00:52:47.474Z,-1.30
2019-01-26T00:53:20.342Z,-1.40
2019-01-26T00:53:52.828Z,-1.40
2019-01-26T00:54:25.311Z,-1.40
2019-01-26T00:54:57.791Z,-1.40
2019-01-26T00:55:30.250Z,-1.40
2019-01-26T00:56:02.740Z,-1.40
2019-01-26T00:56:35.510Z,-1.40
2019-01-26T00:57:07.978Z,-1.40
2019-01-26T00:57:40.451Z,-1.40
2019-01-26T00:58:13.614Z,-1.40
2019-01-26T00:58:46.144Z,-1.40
2019-01-26T00:59:18.614Z,-1.40
2019-01-26T00:59:51.094Z,-1.40
2019-01-26T01:00:23.973Z,-1.40
2019-01-26T01:00:56.451Z,-1.40
2019-01-26T01:01:28.927Z,-1.40
2019-01-26T01:02:01.415Z,-1.40
2019-01-26T01:02:33.887Z,-1.40
2019-01-26T01:03:06.348Z,-1.40
2019-01-26T01:03:38.862Z,-1.40
2019-01-26T01:04:11.427Z,-1.40
2019-01-26T01:04:43.890Z,-1.40
2019-01-26T01:05:16.771Z,-1.40
2019-01-26T01:05:49.234Z,-1.40
2019-01-26T01:06:25.859Z,-1.40
2019-01-26T01:06:56.680Z,-1.40
2019-01-26T01:07:29.138Z,-1.40
2019-01-26T01:08:01.994Z,-1.40
2019-01-26T01:08:34.599Z,-1.30
2019-01-26T01:09:08.187Z,-1.30
2019-01-26T01:09:41.039Z,-1.30
2019-01-26T01:10:14.958Z,-1.30
2019-01-26T01:10:47.431Z,-1.30
2019-01-26T01:11:19.896Z,-1.30
2019-01-26T01:11:52.637Z,-1.30
2019-01-26T01:12:25.489Z,-1.30
2019-01-26T01:12:57.942Z,-1.30
2019-01-26T01:13:30.415Z,-1.20
2019-01-26T01:14:03.055Z,-1.20
2019-01-26T01:14:35.524Z,-1.20
2019-01-26T01:15:09.728Z,-1.30
2019-01-26T01:15:42.212Z,-1.30
2019-01-26T01:16:14.691Z,-1.30
2019-01-26T01:16:47.518Z,-1.20
2019-01-26T01:17:20.282Z,-1.20
2019-01-26T01:17:52.764Z,-1.30
2019-01-26T01:18:25.525Z,-1.20
2019-01-26T01:18:58.315Z,-1.20
2019-01-26T01:19:30.743Z,-1.20
2019-01-26T01:20:04.763Z,-1.20
2019-01-26T01:20:37.282Z,-1.20
2019-01-26T01:21:09.735Z,-1.20
2019-01-26T01:21:42.240Z,-1.20
2019-01-26T01:22:14.699Z,-1.20
2019-01-26T01:22:47.550Z,-1.20
2019-01-26T01:23:20.033Z,-1.20
2019-01-26T01:23:52.522Z,-1.20
2019-01-26T01:24:24.995Z,-1.20
2019-01-26T01:24:57.470Z,-1.20
2019-01-26T01:25:30.228Z,-1.20
2019-01-26T01:26:02.722Z,-1.20
2019-01-26T01:26:35.205Z,-1.20
2019-01-26T01:27:07.681Z,-1.20
2019-01-26T01:27:40.142Z,-1.20
2019-01-26T01:28:13.051Z,-1.20
2019-01-26T01:28:45.850Z,-1.20
2019-01-26T01:29:18.359Z,-1.20
2019-01-26T01:29:50.845Z,-1.20
2019-01-26T01:30:23.645Z,-1.20
2019-01-26T01:30:56.109Z,-1.20
2019-01-26T01:31:28.623Z,-1.20
2019-01-26T01:32:01.094Z,-1.20
2019-01-26T01:32:33.567Z,-1.20
2019-01-26T01:33:06.372Z,-1.20
2019-01-26T01:33:38.850Z,-1.20
2019-01-26T01:34:11.344Z,-1.20
2019-01-26T01:34:43.856Z,-1.20
2019-01-26T01:35:16.699Z,-1.20
2019-01-26T01:35:49.181Z,-1.20
2019-01-26T01:36:21.946Z,-1.10
2019-01-26T01:36:54.573Z,-1.10
2019-01-26T01:37:27.056Z,-1.10
2019-01-26T01:37:59.846Z,-1.10
2019-01-26T01:38:32.616Z,-1.10
2019-01-26T01:39:07.645Z,-1.10
2019-01-26T01:39:40.565Z,-1.10
2019-01-26T01:40:13.982Z,-1.20
2019-01-26T01:40:46.463Z,-1.20
2019-01-26T01:41:18.972Z,-1.20
2019-01-26T01:41:51.438Z,-1.20
2019-01-26T01:42:23.956Z,-1.20
2019-01-26T01:42:56.434Z,-1.20
2019-01-26T01:43:28.905Z,-1.20
2019-01-26T01:44:01.369Z,-1.20
2019-01-26T01:44:34.191Z,-1.20
2019-01-26T01:45:08.812Z,-1.20
2019-01-26T01:45:41.303Z,-1.20
2019-01-26T01:46:13.787Z,-1.20
2019-01-26T01:46:46.268Z,-1.20
2019-01-26T01:47:19.364Z,-1.20
2019-01-26T01:47:51.866Z,-1.20
2019-01-26T01:48:24.350Z,-1.20
2019-01-26T01:48:56.828Z,-1.20
2019-01-26T01:49:29.294Z,-1.20
2019-01-26T01:50:01.770Z,-1.20
2019-01-26T01:50:34.256Z,-1.20
2019-01-26T01:51:06.735Z,-1.20
2019-01-26T01:51:39.207Z,-1.20
2019-01-26T01:52:12.011Z,-1.20
2019-01-26T01:52:44.496Z,-1.10
2019-01-26T01:53:17.347Z,-1.20
2019-01-26T01:53:49.886Z,-1.20
2019-01-26T01:54:22.369Z,-1.10
2019-01-26T01:54:54.842Z,-1.10
2019-01-26T01:55:27.311Z,-1.10
2019-01-26T01:55:59.791Z,-1.20
2019-01-26T01:56:32.274Z,-1.10
2019-01-26T01:57:05.040Z,-1.20
2019-01-26T01:57:37.498Z,-1.20
2019-01-26T01:58:10.326Z,-1.10
2019-01-26T01:58:42.814Z,-1.10
2019-01-26T01:59:15.301Z,-1.10
2019-01-26T01:59:48.107Z,-1.20
2019-01-26T02:00:22.518Z,-1.20
2019-01-26T02:00:55.011Z,-1.20
2019-01-26T02:01:27.486Z,-1.20
2019-01-26T02:01:59.957Z,-1.20
2019-01-26T02:02:32.418Z,-1.20
2019-01-26T02:03:04.891Z,-1.20
2019-01-26T02:03:37.658Z,-1.20
2019-01-26T02:04:10.176Z,-1.20
2019-01-26T02:04:42.656Z,-1.20
2019-01-26T02:05:15.447Z,-1.20
2019-01-26T02:05:48.241Z,-1.20
2019-01-26T02:06:20.740Z,-1.20
2019-01-26T02:06:53.213Z,-1.20
2019-01-26T02:07:25.706Z,-1.20
2019-01-26T02:07:58.636Z,-1.20
2019-01-26T02:08:31.102Z,-1.20
2019-01-26T02:09:07.214Z,-1.20
2019-01-26T02:09:40.083Z,-1.20
2019-01-26T02:10:14.190Z,-1.20
2019-01-26T02:10:46.669Z,-1.20
2019-01-26T02:11:19.134Z,-1.20
2019-01-26T02:11:51.605Z,-1.20
2019-01-26T02:12:24.433Z,-1.20
2019-01-26T02:12:56.900Z,-1.20
2019-01-26T02:13:29.350Z,-1.20
2019-01-26T02:14:02.356Z,-1.20
2019-01-26T02:14:34.813Z,-1.20
2019-01-26T02:15:08.325Z,-1.10
2019-01-26T02:15:41.137Z,-1.20
2019-01-26T02:16:13.623Z,-1.20
2019-01-26T02:16:50.074Z,-1.10
2019-01-26T02:17:20.390Z,-1.20
2019-01-26T02:17:52.858Z,-1.10
2019-01-26T02:18:25.772Z,-1.10
2019-01-26T02:18:58.246Z,-1.10
2019-01-26T02:19:30.722Z,-1.10
2019-01-26T02:20:04.543Z,-1.10
2019-01-26T02:20:37.049Z,-1.10
2019-01-26T02:21:10.218Z,-1.20
2019-01-26T02:21:42.786Z,-1.20
2019-01-26T02:22:15.258Z,-1.20
2019-01-26T02:22:47.745Z,-1.20
2019-01-26T02:23:20.210Z,-1.20
2019-01-26T02:23:52.670Z,-1.20
2019-01-26T02:24:25.175Z,-1.20
2019-01-26T02:24:58.031Z,-1.10
2019-01-26T02:25:30.867Z,-1.10
2019-01-26T02:26:03.569Z,-1.10
2019-01-26T02:26:36.078Z,-1.10
2019-01-26T02:27:08.562Z,-1.10
2019-01-26T02:27:41.034Z,-1.10
2019-01-26T02:28:13.492Z,-1.10
2019-01-26T02:28:45.972Z,-1.10
2019-01-26T02:29:18.446Z,-1.10
2019-01-26T02:29:50.954Z,-1.20
2019-01-26T02:30:23.532Z,-1.20
2019-01-26T02:30:56.023Z,-1.10
2019-01-26T02:31:28.852Z,-1.10
2019-01-26T02:32:01.319Z,-1.10
2019-01-26T02:32:33.921Z,-1.10
2019-01-26T02:33:06.395Z,-1.00
2019-01-26T02:33:38.868Z,-1.10
2019-01-26T02:34:11.352Z,-1.00
2019-01-26T02:34:43.829Z,-1.10
2019-01-26T02:35:16.569Z,-1.10
2019-01-26T02:35:49.067Z,-1.20
2019-01-26T02:36:21.551Z,-1.20
2019-01-26T02:36:54.049Z,-1.20
2019-01-26T02:37:26.528Z,-1.20
2019-01-26T02:37:59.011Z,-1.20
2019-01-26T02:38:31.873Z,-1.20
2019-01-26T02:39:06.606Z,-1.20
2019-01-26T02:39:39.101Z,-1.30
2019-01-26T02:40:12.276Z,-1.30
2019-01-26T02:40:44.740Z,-1.30
2019-01-26T02:41:17.198Z,-1.30
2019-01-26T02:41:50.007Z,-1.30
2019-01-26T02:42:22.909Z,-1.20
2019-01-26T02:42:55.988Z,-1.20
2019-01-26T02:43:28.447Z,-1.20
2019-01-26T02:44:00.931Z,-1.20
2019-01-26T02:44:33.390Z,-1.20
2019-01-26T02:45:06.633Z,-1.20
2019-01-26T02:45:39.111Z,-1.30
2019-01-26T02:46:11.583Z,-1.30
2019-01-26T02:46:44.065Z,-1.30
2019-01-26T02:47:16.543Z,-1.30
2019-01-26T02:47:49.038Z,-1.30
2019-01-26T02:48:21.514Z,-1.30
2019-01-26T02:48:53.987Z,-1.30
2019-01-26T02:49:26.469Z,-1.30
2019-01-26T02:49:58.941Z,-1.30
2019-01-26T02:50:31.731Z,-1.30
2019-01-26T02:51:04.207Z,-1.20
2019-01-26T02:51:36.962Z,-1.20
2019-01-26T02:52:09.435Z,-1.20
2019-01-26T02:52:41.936Z,-1.30
2019-01-26T02:53:14.448Z,-1.30
2019-01-26T02:53:46.916Z,-1.30
2019-01-26T02:54:20.013Z,-1.20
2019-01-26T02:54:52.813Z,-1.20
2019-01-26T02:55:25.273Z,-1.20
2019-01-26T02:55:57.752Z,-1.20
2019-01-26T02:56:30.229Z,-1.20
2019-01-26T02:57:02.802Z,-1.20
2019-01-26T02:57:35.277Z,-1.20
2019-01-26T02:58:07.868Z,-1.20
2019-01-26T02:58:40.701Z,-1.20
2019-01-26T02:59:13.197Z,-1.20
2019-01-26T02:59:45.661Z,-1.20
2019-01-26T03:00:20.767Z,-1.20
2019-01-26T03:00:53.605Z,-1.10
2019-01-26T03:01:26.072Z,-1.10
2019-01-26T03:01:58.537Z,-1.20
2019-01-26T03:02:30.998Z,-1.10
2019-01-26T03:03:03.875Z,-1.20
2019-01-26T03:03:36.807Z,-1.20
2019-01-26T03:04:09.307Z,-1.20
2019-01-26T03:04:42.159Z,-1.20
2019-01-26T03:05:14.672Z,-1.20
2019-01-26T03:05:48.385Z,-1.10
2019-01-26T03:06:20.866Z,-1.10
2019-01-26T03:06:53.343Z,-1.10
2019-01-26T03:07:25.823Z,-1.10
2019-01-26T03:07:58.295Z,-1.20
2019-01-26T03:08:30.773Z,-1.20
2019-01-26T03:09:05.475Z,-1.20
2019-01-26T03:09:37.971Z,-1.20
2019-01-26T03:10:12.626Z,-1.20
2019-01-26T03:10:45.108Z,-1.30
2019-01-26T03:11:17.583Z,-1.30
2019-01-26T03:11:50.056Z,-1.40
2019-01-26T03:12:22.523Z,-1.30
2019-01-26T03:12:55.001Z,-1.30
2019-01-26T03:13:27.782Z,-1.40
2019-01-26T03:14:00.262Z,-1.40
2019-01-26T03:14:32.732Z,-1.40
2019-01-26T03:15:07.061Z,-1.40
2019-01-26T03:15:41.532Z,-1.40
2019-01-26T03:16:14.546Z,-1.40
2019-01-26T03:16:47.032Z,-1.40
2019-01-26T03:17:19.494Z,-1.30
2019-01-26T03:17:52.361Z,-1.30
2019-01-26T03:18:24.823Z,-1.30
2019-01-26T03:18:57.491Z,-1.30
2019-01-26T03:19:30.295Z,-1.30
2019-01-26T03:20:03.975Z,-1.30
2019-01-26T03:20:36.506Z,-1.30
2019-01-26T03:21:08.976Z,-1.30
2019-01-26T03:21:41.449Z,-1.30
2019-01-26T03:22:13.976Z,-1.30
2019-01-26T03:22:46.415Z,-1.40
2019-01-26T03:23:19.238Z,-1.40
2019-01-26T03:23:52.019Z,-1.40
2019-01-26T03:24:24.488Z,-1.40
2019-01-26T03:24:56.985Z,-1.30
2019-01-26T03:25:29.459Z,-1.30
2019-01-26T03:26:01.979Z,-1.30
2019-01-26T03:26:34.464Z,-1.30
2019-01-26T03:27:07.294Z,-1.30
2019-01-26T03:27:39.780Z,-1.30
2019-01-26T03:28:12.563Z,-1.30
2019-01-26T03:28:45.029Z,-1.30
2019-01-26T03:29:17.500Z,-1.30
2019-01-26T03:29:50.280Z,-1.30
2019-01-26T03:30:24.615Z,-1.40
2019-01-26T03:30:57.089Z,-1.40
2019-01-26T03:31:29.948Z,-1.40
2019-01-26T03:32:02.454Z,-1.40
2019-01-26T03:32:35.247Z,-1.40
2019-01-26T03:33:07.738Z,-1.40
2019-01-26T03:33:40.209Z,-1.40
2019-01-26T03:34:12.681Z,-1.40
2019-01-26T03:34:45.150Z,-1.40
2019-01-26T03:35:18.033Z,-1.40
2019-01-26T03:35:50.512Z,-1.40
2019-01-26T03:36:22.974Z,-1.30
2019-01-26T03:36:55.492Z,-1.30
2019-01-26T03:37:27.963Z,-1.30
2019-01-26T03:38:00.438Z,-1.30
2019-01-26T03:38:32.906Z,-1.30
2019-01-26T03:39:07.908Z,-1.30
2019-01-26T03:39:40.392Z,-1.30
2019-01-26T03:40:14.372Z,-1.30
2019-01-26T03:40:47.210Z,-1.40
2019-01-26T03:41:20.393Z,-1.40
2019-01-26T03:41:53.255Z,-1.40
2019-01-26T03:42:25.754Z,-1.40
2019-01-26T03:42:58.737Z,-1.40
2019-01-26T03:43:31.223Z,-1.40
2019-01-26T03:44:04.128Z,-1.40
2019-01-26T03:44:36.603Z,-1.40
2019-01-26T03:45:10.199Z,-1.40
2019-01-26T03:45:42.676Z,-1.40
2019-01-26T03:46:15.270Z,-1.40
2019-01-26T03:46:48.139Z,-1.50
2019-01-26T03:47:20.595Z,-1.40
2019-01-26T03:47:53.405Z,-1.40
2019-01-26T03:48:25.975Z,-1.40
2019-01-26T03:48:59.201Z,-1.40
2019-01-26T03:49:32.826Z,-1.40
2019-01-26T03:50:06.026Z,-1.40
2019-01-26T03:50:38.512Z,-1.40
2019-01-26T03:51:11.343Z,-1.40
2019-01-26T03:51:44.493Z,-1.30
2019-01-26T03:52:16.972Z,-1.40
2019-01-26T03:52:49.753Z,-1.30
2019-01-26T03:53:22.242Z,-1.40
2019-01-26T03:53:54.715Z,-1.40
2019-01-26T03:54:27.190Z,-1.30
2019-01-26T03:54:59.660Z,-1.30
2019-01-26T03:55:32.142Z,-1.30
2019-01-26T03:56:04.648Z,-1.40
2019-01-26T03:56:37.142Z,-1.40
2019-01-26T03:57:10.042Z,-1.40
2019-01-26T03:57:42.611Z,-1.40
2019-01-26T03:58:15.093Z,-1.40
2019-01-26T03:58:47.599Z,-1.40
2019-01-26T03:59:20.089Z,-1.40
2019-01-26T03:59:52.894Z,-1.30
2019-01-26T04:00:26.450Z,-1.30
2019-01-26T04:00:58.933Z,-1.30
2019-01-26T04:01:31.408Z,-1.40
2019-01-26T04:02:04.254Z,-1.40
2019-01-26T04:02:36.724Z,-1.40
2019-01-26T04:03:09.181Z,-1.40
2019-01-26T04:03:41.656Z,-1.40
2019-01-26T04:04:14.226Z,-1.40
2019-01-26T04:04:46.637Z,-1.40
2019-01-26T04:05:19.470Z,-1.40
2019-01-26T04:05:51.940Z,-1.50
2019-01-26T04:06:25.047Z,-1.40
2019-01-26T04:06:57.530Z,-1.40
2019-01-26T04:07:30.005Z,-1.40
2019-01-26T04:08:02.570Z,-1.40
2019-01-26T04:08:35.339Z,-1.40
2019-01-26T04:09:08.666Z,-1.40
2019-01-26T04:09:41.149Z,-1.40
2019-01-26T04:10:13.848Z,-1.40
2019-01-26T04:10:46.367Z,-1.30
2019-01-26T04:11:18.796Z,-1.30
2019-01-26T04:11:51.276Z,-1.30
2019-01-26T04:12:24.067Z,-1.30
2019-01-26T04:12:56.539Z,-1.40
2019-01-26T04:13:29.011Z,-1.30
2019-01-26T04:14:01.484Z,-1.30
2019-01-26T04:14:34.190Z,-1.30
2019-01-26T04:15:08.791Z,-1.30
2019-01-26T04:15:41.697Z,-1.30
2019-01-26T04:16:14.186Z,-1.30
2019-01-26T04:16:46.964Z,-1.30
2019-01-26T04:17:21.904Z,-1.30
2019-01-26T04:17:54.022Z,-1.30
2019-01-26T04:18:26.499Z,-1.30
2019-01-26T04:18:58.968Z,-1.30
2019-01-26T04:19:31.448Z,-1.30
2019-01-26T04:20:05.055Z,-1.30
2019-01-26T04:20:37.551Z,-1.20
2019-01-26T04:21:10.139Z,-1.20
2019-01-26T04:21:42.621Z,-1.20
2019-01-26T04:22:15.105Z,-1.20
2019-01-26T04:22:48.000Z,-1.20
2019-01-26T04:23:20.797Z,-1.20
2019-01-26T04:23:53.261Z,-1.20
2019-01-26T04:24:25.725Z,-1.20
2019-01-26T04:24:58.195Z,-1.10
2019-01-26T04:25:31.040Z,-1.10
2019-01-26T04:26:03.550Z,-1.20
2019-01-26T04:26:36.018Z,-1.20
2019-01-26T04:27:08.498Z,-1.20
2019-01-26T04:27:40.967Z,-1.20
2019-01-26T04:28:14.834Z,-1.20
2019-01-26T04:28:47.318Z,-1.20
2019-01-26T04:29:19.795Z,-1.20
2019-01-26T04:29:52.260Z,-1.20
2019-01-26T04:30:25.022Z,-1.20
2019-01-26T04:30:57.544Z,-1.20
2019-01-26T04:31:30.043Z,-1.20
2019-01-26T04:32:02.877Z,-1.20
2019-01-26T04:32:35.334Z,-1.20
2019-01-26T04:33:08.130Z,-1.20
2019-01-26T04:33:40.607Z,-1.20
2019-01-26T04:34:13.091Z,-1.20
2019-01-26T04:34:45.550Z,-1.20
2019-01-26T04:35:18.036Z,-1.20
2019-01-26T04:35:50.505Z,-1.10
2019-01-26T04:36:22.992Z,-1.10
2019-01-26T04:36:55.832Z,-1.10
2019-01-26T04:37:28.302Z,-1.20
2019-01-26T04:38:00.755Z,-1.20
2019-01-26T04:38:33.582Z,-1.20
2019-01-26T04:39:07.864Z,-1.10
2019-01-26T04:39:40.340Z,-1.00
2019-01-26T04:40:14.551Z,-1.00
2019-01-26T04:40:47.029Z,-1.00
2019-01-26T04:41:19.816Z,-1.00
2019-01-26T04:41:52.293Z,-1.00
2019-01-26T04:42:25.107Z,-1.10
2019-01-26T04:42:58.136Z,-1.10
2019-01-26T04:43:31.032Z,-1.00
2019-01-26T04:44:04.107Z,-1.00
2019-01-26T04:44:37.015Z,-1.00
2019-01-26T04:45:12.322Z,-1.00
2019-01-26T04:45:44.803Z,-1.00
2019-01-26T04:46:17.276Z,-1.00
2019-01-26T04:46:49.771Z,-1.00
2019-01-26T04:47:30.545Z,-1.00
2019-01-26T04:47:56.833Z,-1.00
2019-01-26T04:48:29.295Z,-1.00
2019-01-26T04:49:02.223Z,-1.00
2019-01-26T04:49:34.695Z,-1.00
2019-01-26T04:50:09.097Z,-0.90
2019-01-26T04:50:42.518Z,-0.90
2019-01-26T04:51:15.143Z,-1.00
2019-01-26T04:51:47.607Z,-1.00
2019-01-26T04:52:20.749Z,-1.00
2019-01-26T04:52:53.214Z,-1.00
2019-01-26T04:53:26.069Z,-1.00
2019-01-26T04:53:58.539Z,-0.90
2019-01-26T04:54:31.396Z,-0.90
2019-01-26T04:55:04.431Z,-0.90
2019-01-26T04:55:36.900Z,-0.90
2019-01-26T04:56:09.368Z,-0.90
2019-01-26T04:56:41.825Z,-0.90
2019-01-26T04:57:14.294Z,-0.90
2019-01-26T04:57:46.794Z,-0.90
2019-01-26T04:58:19.283Z,-0.90
2019-01-26T04:58:51.775Z,-0.90
2019-01-26T04:59:24.251Z,-0.90
2019-01-26T04:59:56.731Z,-0.90
2019-01-26T05:00:29.210Z,-0.90
2019-01-26T05:01:02.075Z,-0.90
2019-01-26T05:01:34.570Z,-0.90
2019-01-26T05:02:07.052Z,-0.90
2019-01-26T05:02:39.513Z,-0.90
2019-01-26T05:03:11.978Z,-1.00
2019-01-26T05:03:44.443Z,-1.00
2019-01-26T05:04:16.958Z,-0.90
2019-01-26T05:04:49.794Z,-0.90
2019-01-26T05:05:22.269Z,-0.90
2019-01-26T05:05:54.739Z,-0.90
2019-01-26T05:06:27.517Z,-0.90
2019-01-26T05:07:00.454Z,-1.00
2019-01-26T05:07:33.249Z,-0.90
2019-01-26T05:08:05.865Z,-0.90
2019-01-26T05:08:38.325Z,-1.00
2019-01-26T05:09:10.797Z,-1.00
2019-01-26T05:09:43.313Z,-1.00
2019-01-26T05:10:16.379Z,-1.00
2019-01-26T05:10:48.833Z,-1.00
2019-01-26T05:11:21.680Z,-1.00
2019-01-26T05:11:54.163Z,-1.00
2019-01-26T05:12:26.628Z,-1.00
2019-01-26T05:12:59.094Z,-1.00
2019-01-26T05:13:34.350Z,-1.00
2019-01-26T05:14:06.840Z,-1.00
2019-01-26T05:14:39.302Z,-1.00
2019-01-26T05:15:13.099Z,-1.00
2019-01-26T05:15:46.009Z,-1.00
2019-01-26T05:16:18.488Z,-1.00
2019-01-26T05:16:51.336Z,-1.00
2019-01-26T05:17:23.806Z,-1.00
2019-01-26T05:17:56.562Z,-1.00
2019-01-26T05:18:28.795Z,-1.00
2019-01-26T05:19:01.262Z,-1.00
2019-01-26T05:19:33.744Z,-1.00
2019-01-26T05:20:09.693Z,-1.00
2019-01-26T05:20:42.183Z,-1.00
2019-01-26T05:21:14.663Z,-1.00
2019-01-26T05:21:47.143Z,-1.00
2019-01-26T05:22:19.627Z,-1.00
2019-01-26T05:22:52.102Z,-0.90
2019-01-26T05:23:24.583Z,-0.90
2019-01-26T05:23:57.391Z,-0.90
2019-01-26T05:24:29.882Z,-0.90
2019-01-26T05:25:02.363Z,-0.90
2019-01-26T05:25:35.606Z,-0.90
2019-01-26T05:26:08.576Z,-0.90
2019-01-26T05:26:41.048Z,-0.90
2019-01-26T05:27:13.901Z,-0.90
2019-01-26T05:27:47.131Z,-0.80
2019-01-26T05:28:19.533Z,-0.80
2019-01-26T05:28:52.487Z,-0.80
2019-01-26T05:29:24.950Z,-0.80
2019-01-26T05:29:57.429Z,-0.80
2019-01-26T05:30:30.002Z,-0.80
2019-01-26T05:31:02.469Z,-0.80
2019-01-26T05:31:35.390Z,-0.80
2019-01-26T05:32:08.205Z,-0.80
2019-01-26T05:32:40.687Z,-0.80
2019-01-26T05:33:13.527Z,-0.70
2019-01-26T05:33:46.012Z,-0.70
2019-01-26T05:34:18.862Z,-0.70
2019-01-26T05:34:51.744Z,-0.70
2019-01-26T05:35:24.215Z,-0.70
2019-01-26T05:35:56.705Z,-0.70
2019-01-26T05:36:29.181Z,-0.70
2019-01-26T05:37:01.703Z,-0.70
2019-01-26T05:37:34.859Z,-0.70
2019-01-26T05:38:07.618Z,-0.70
2019-01-26T05:38:40.094Z,-0.70
2019-01-26T05:39:12.566Z,-0.70
2019-01-26T05:39:45.057Z,-0.70
2019-01-26T05:40:17.973Z,-0.70
2019-01-26T05:40:50.434Z,-0.70
2019-01-26T05:41:23.212Z,-0.70
2019-01-26T05:41:55.684Z,-0.70
2019-01-26T05:42:28.183Z,-0.70
2019-01-26T05:43:01.633Z,-0.70
2019-01-26T05:43:34.123Z,-0.60
2019-01-26T05:44:06.934Z,-0.60
2019-01-26T05:44:39.407Z,-0.60
2019-01-26T05:45:16.212Z,-0.60
2019-01-26T05:45:48.680Z,-0.60
2019-01-26T05:46:21.160Z,-0.60
2019-01-26T05:46:53.621Z,-0.60
2019-01-26T05:47:26.086Z,-0.70
2019-01-26T05:47:58.637Z,-0.60
2019-01-26T05:48:31.538Z,-0.70
2019-01-26T05:49:04.011Z,-0.60
2019-01-26T05:49:36.489Z,-0.60
2019-01-26T05:50:12.114Z,-0.60
2019-01-26T05:50:44.977Z,-0.60
2019-01-26T05:51:17.441Z,-0.60
2019-01-26T05:51:49.910Z,-0.60
2019-01-26T05:52:22.389Z,-0.60
2019-01-26T05:52:55.537Z,-0.60
2019-01-26T05:53:28.050Z,-0.50
2019-01-26T05:54:00.552Z,-0.60
2019-01-26T05:54:33.017Z,-0.50
2019-01-26T05:55:06.194Z,-0.50
2019-01-26T05:55:39.073Z,-0.60
2019-01-26T05:56:11.548Z,-0.60
2019-01-26T05:56:44.031Z,-0.60
2019-01-26T05:57:16.494Z,-0.60
2019-01-26T05:57:49.295Z,-0.50
2019-01-26T05:58:22.092Z,-0.50
2019-01-26T05:58:54.903Z,-0.50
2019-01-26T05:59:27.380Z,-0.50
2019-01-26T06:00:00.222Z,-0.50
2019-01-26T06:00:36.006Z,-0.50
2019-01-26T06:01:08.757Z,-0.50
2019-01-26T06:01:41.670Z,-0.50
2019-01-26T06:02:14.150Z,-0.50
2019-01-26T06:02:46.623Z,-0.50
2019-01-26T06:03:19.115Z,-0.50
2019-01-26T06:03:51.582Z,-0.50
2019-01-26T06:04:24.069Z,-0.40
2019-01-26T06:04:56.542Z,-0.40
2019-01-26T06:05:29.028Z,-0.40
2019-01-26T06:06:01.489Z,-0.40
2019-01-26T06:06:33.964Z,-0.40
2019-01-26T06:07:07.097Z,-0.40
2019-01-26T06:07:39.588Z,-0.40
2019-01-26T06:08:12.042Z,-0.40
2019-01-26T06:08:44.509Z,-0.40
2019-01-26T06:09:16.986Z,-0.40
2019-01-26T06:09:49.503Z,-0.40
2019-01-26T06:10:21.993Z,-0.40
2019-01-26T06:10:54.450Z,-0.40
2019-01-26T06:11:26.924Z,-0.40
2019-01-26T06:11:59.398Z,-0.30
2019-01-26T06:12:32.011Z,-0.30
2019-01-26T06:13:05.073Z,-0.30
2019-01-26T06:13:37.852Z,-0.30
2019-01-26T06:14:10.323Z,-0.30
2019-01-26T06:14:42.808Z,-0.30
2019-01-26T06:15:15.518Z,-0.30
2019-01-26T06:15:47.991Z,-0.30
2019-01-26T06:16:20.771Z,-0.30
2019-01-26T06:16:53.657Z,-0.30
2019-01-26T06:17:26.126Z,-0.30
2019-01-26T06:17:58.971Z,-0.30
2019-01-26T06:18:31.730Z,-0.30
2019-01-26T06:19:04.211Z,-0.30
2019-01-26T06:19:36.688Z,-0.30
2019-01-26T06:20:09.839Z,-0.30
2019-01-26T06:20:42.712Z,-0.30
2019-01-26T06:21:15.186Z,-0.30
2019-01-26T06:21:47.650Z,-0.30
2019-01-26T06:22:20.128Z,-0.30
2019-01-26T06:22:53.293Z,-0.30
2019-01-26T06:23:26.139Z,-0.30
2019-01-26T06:23:58.611Z,-0.30
2019-01-26T06:24:31.074Z,-0.30
2019-01-26T06:25:04.373Z,-0.30
2019-01-26T06:25:36.834Z,-0.30
2019-01-26T06:26:09.338Z,-0.30
2019-01-26T06:26:41.943Z,-0.20
2019-01-26T06:27:14.414Z,-0.20
2019-01-26T06:27:46.933Z,-0.20
2019-01-26T06:28:19.408Z,-0.30
2019-01-26T06:28:51.877Z,-0.20
2019-01-26T06:29:24.353Z,-0.30
2019-01-26T06:29:57.128Z,-0.20
2019-01-26T06:30:29.594Z,-0.20
2019-01-26T06:31:02.071Z,-0.20
2019-01-26T06:31:34.841Z,-0.20
2019-01-26T06:32:07.356Z,-0.20
2019-01-26T06:32:39.840Z,-0.20
2019-01-26T06:33:12.327Z,-0.20
2019-01-26T06:33:44.786Z,-0.20
2019-01-26T06:34:17.558Z,-0.20
2019-01-26T06:34:50.009Z,-0.20
2019-01-26T06:35:22.698Z,-0.20
2019-01-26T06:35:55.169Z,-0.20
2019-01-26T06:36:27.638Z,-0.30
2019-01-26T06:37:00.653Z,-0.20
2019-01-26T06:37:33.136Z,-0.20
2019-01-26T06:38:05.961Z,-0.20
2019-01-26T06:38:38.422Z,-0.20
2019-01-26T06:39:10.893Z,-0.20
2019-01-26T06:39:43.360Z,-0.20
2019-01-26T06:40:16.767Z,-0.20
2019-01-26T06:40:49.245Z,-0.10
2019-01-26T06:41:21.715Z,-0.20
2019-01-26T06:41:54.182Z,-0.10
2019-01-26T06:42:26.679Z,-0.10
2019-01-26T06:42:59.902Z,-0.10
2019-01-26T06:43:32.713Z,-0.10
2019-01-26T06:44:05.189Z,-0.10
2019-01-26T06:44:37.671Z,-0.10
2019-01-26T06:45:10.726Z,-0.10
2019-01-26T06:45:46.414Z,-0.10
2019-01-26T06:46:18.894Z,-0.10
2019-01-26T06:46:51.358Z,-0.10
2019-01-26T06:47:23.835Z,-0.10
2019-01-26T06:48:02.122Z,-0.10
2019-01-26T06:48:30.616Z,-0.10
2019-01-26T06:49:03.204Z,-0.10
2019-01-26T06:49:36.054Z,-0.10
2019-01-26T06:50:11.954Z,-0.10
2019-01-26T06:50:44.947Z,-0.10
2019-01-26T06:51:17.414Z,-0.10
2019-01-26T06:51:55.473Z,-0.10
2019-01-26T06:52:27.944Z,-0.10
2019-01-26T06:53:00.454Z,-0.10
2019-01-26T06:53:33.318Z,-0.10
2019-01-26T06:54:05.801Z,-0.10
2019-01-26T06:54:38.628Z,-0.10
2019-01-26T06:55:11.408Z,-0.10
2019-01-26T06:55:44.263Z,-0.10
2019-01-26T06:56:16.729Z,-0.10
2019-01-26T06:56:49.317Z,-0.10
2019-01-26T06:57:22.160Z,-0.10
2019-01-26T06:57:54.927Z,-0.10
2019-01-26T06:58:27.799Z,-0.10
2019-01-26T06:59:00.558Z,-0.10
2019-01-26T06:59:33.331Z,-0.10
2019-01-26T07:00:09.094Z,-0.10
2019-01-26T07:00:41.577Z,-0.10
2019-01-26T07:01:14.046Z,0.00
2019-01-26T07:01:46.542Z,0.00